Time;durP1;ratioP1;P1;durP2;ratioP2;P2;SDS_P1;SDS_P2;PMS_P1;PMS_P2;Temp;Humidity;BMP_temperature;BMP_pressure;BME280_temperature;BME280_humidity;BME280_pressure;Samples;Min_cycle;Max_cycle;Signal;HPM_P1;HPM_P2
2022/03/16 00:00:13;;;;;;;30.70;15.82;;;9.60;99.90;;;;;;5046736;28;20028;-76
2022/03/16 00:02:39;;;;;;;29.58;16.35;;;9.60;99.90;;;;;;5065327;28;20021;-77
2022/03/16 00:05:06;;;;;;;33.95;15.77;;;9.70;99.90;;;;;;5031233;28;20155;-76
2022/03/16 00:07:31;;;;;;;28.75;15.80;;;9.70;99.90;;;;;;5064716;28;20025;-76
2022/03/16 00:09:57;;;;;;;30.58;16.23;;;9.70;99.90;;;;;;5064201;28;20031;-75
2022/03/16 00:12:23;;;;;;;29.42;16.52;;;9.60;99.90;;;;;;5081104;28;20104;-76
2022/03/16 00:14:49;;;;;;;31.95;17.73;;;9.60;99.90;;;;;;5064630;28;20020;-75
2022/03/16 00:17:16;;;;;;;30.10;17.67;;;9.60;99.90;;;;;;5047573;28;20184;-75
2022/03/16 00:19:43;;;;;;;32.78;16.75;;;9.70;99.90;;;;;;5048035;28;20088;-75
2022/03/16 00:22:10;;;;;;;36.03;17.75;;;9.70;99.90;;;;;;5047914;28;20092;-74
2022/03/16 00:24:36;;;;;;;34.40;18.08;;;9.60;99.90;;;;;;5047869;28;20028;-74
2022/03/16 00:27:02;;;;;;;34.83;17.67;;;9.60;99.90;;;;;;5047568;28;20147;-75
2022/03/16 00:29:28;;;;;;;31.15;17.40;;;9.60;99.90;;;;;;5065191;28;20227;-75
2022/03/16 00:31:54;;;;;;;33.60;17.23;;;9.60;99.90;;;;;;5063944;28;20308;-76
2022/03/16 00:34:19;;;;;;;31.63;18.17;;;9.70;99.90;;;;;;5063518;28;20028;-75
2022/03/16 00:36:46;;;;;;;39.22;19.63;;;9.60;99.90;;;;;;5062673;28;20025;-77
2022/03/16 00:39:11;;;;;;;36.25;19.30;;;9.60;99.90;;;;;;5027516;28;20092;-75
2022/03/16 00:41:37;;;;;;;35.42;20.02;;;9.50;99.90;;;;;;5027391;28;20209;-75
2022/03/16 00:44:05;;;;;;;35.10;19.38;;;9.50;99.90;;;;;;5027488;28;20028;-77
2022/03/16 00:46:31;;;;;;;35.22;20.08;;;9.60;99.90;;;;;;5044071;28;20017;-75
2022/03/16 00:48:56;;;;;;;35.50;19.55;;;9.60;99.90;;;;;;5043756;28;20536;-74
2022/03/16 00:51:22;;;;;;;38.47;20.40;;;9.60;99.90;;;;;;5026530;28;20329;-76
2022/03/16 00:53:48;;;;;;;38.55;20.73;;;9.60;99.90;;;;;;5027416;28;20052;-75
2022/03/16 00:56:14;;;;;;;40.60;20.63;;;9.60;99.90;;;;;;5060541;28;20358;-77
2022/03/16 00:58:40;;;;;;;40.53;20.92;;;9.50;99.90;;;;;;5026894;28;20025;-75
2022/03/16 01:01:06;;;;;;;38.88;21.95;;;9.50;99.90;;;;;;5025458;28;20063;-75
2022/03/16 01:03:34;;;;;;;45.53;21.88;;;9.50;99.90;;;;;;5043285;28;20103;-74
2022/03/16 01:05:59;;;;;;;39.30;21.10;;;9.50;99.90;;;;;;5027412;28;20033;-77
2022/03/16 01:08:25;;;;;;;38.50;21.92;;;9.50;99.90;;;;;;5043470;28;20068;-75
2022/03/16 01:10:51;;;;;;;37.72;21.05;;;9.50;99.90;;;;;;5026915;28;20025;-74
2022/03/16 01:13:17;;;;;;;37.03;21.05;;;9.50;99.90;;;;;;5060289;28;20167;-76
2022/03/16 01:15:43;;;;;;;41.17;22.20;;;9.50;99.90;;;;;;5047056;28;20032;-76
2022/03/16 01:18:09;;;;;;;42.30;22.50;;;9.50;99.90;;;;;;5046723;28;20017;-75
2022/03/16 01:20:35;;;;;;;42.17;22.48;;;9.50;99.90;;;;;;5046634;28;20023;-75
2022/03/16 01:23:01;;;;;;;40.47;21.80;;;9.50;99.90;;;;;;5029783;28;20088;-75
2022/03/16 01:25:26;;;;;;;39.92;22.52;;;9.50;99.90;;;;;;5063339;28;20025;-74
2022/03/16 01:27:52;;;;;;;38.92;22.92;;;9.50;99.90;;;;;;5046570;28;20216;-75
2022/03/16 01:30:18;;;;;;;37.08;23.42;;;9.40;99.90;;;;;;5046607;28;20021;-75
2022/03/16 01:32:43;;;;;;;39.10;22.58;;;9.40;99.90;;;;;;5062259;28;20029;-75
2022/03/16 01:35:10;;;;;;;41.67;24.45;;;9.50;99.90;;;;;;5062294;28;20024;-75
2022/03/16 01:37:36;;;;;;;39.13;23.05;;;9.40;99.90;;;;;;5043095;28;20296;-75
2022/03/16 01:40:04;;;;;;;40.40;23.02;;;9.40;99.90;;;;;;5042785;28;20032;-75
2022/03/16 01:42:30;;;;;;;41.38;23.17;;;9.40;99.90;;;;;;5042811;28;20021;-74
2022/03/16 01:44:57;;;;;;;40.85;23.70;;;9.50;99.90;;;;;;5042381;28;20036;-76
2022/03/16 01:47:24;;;;;;;41.80;23.92;;;9.50;99.90;;;;;;5042931;28;20021;-76
2022/03/16 01:49:51;;;;;;;43.92;24.08;;;9.50;99.90;;;;;;5042335;28;20041;-76
2022/03/16 01:52:22;;;;;;;45.72;24.35;;;9.50;99.90;;;;;;5042409;28;20048;-76
2022/03/16 01:54:48;;;;;;;43.45;24.00;;;9.40;99.90;;;;;;5042507;28;20029;-76
2022/03/16 01:57:15;;;;;;;44.88;23.98;;;9.40;99.90;;;;;;5042719;28;20021;-76
2022/03/16 01:59:42;;;;;;;49.67;24.60;;;9.30;99.90;;;;;;5042637;28;20021;-74
2022/03/16 02:02:09;;;;;;;44.53;23.55;;;9.30;99.90;;;;;;5040050;28;20308;-74
2022/03/16 02:04:35;;;;;;;43.65;24.40;;;9.40;99.90;;;;;;5042491;28;20022;-75
2022/03/16 02:07:01;;;;;;;49.25;24.75;;;9.50;99.90;;;;;;5042284;28;20037;-75
2022/03/16 02:09:27;;;;;;;43.90;24.60;;;9.50;99.90;;;;;;5042532;28;20327;-75
2022/03/16 02:11:52;;;;;;;40.15;23.52;;;9.60;99.90;;;;;;5042564;28;20395;-77
2022/03/16 02:14:18;;;;;;;40.78;22.92;;;9.60;99.90;;;;;;5043773;28;20022;-75
2022/03/16 02:16:45;;;;;;;39.95;22.05;;;9.70;99.90;;;;;;5026024;28;20021;-76
2022/03/16 02:19:11;;;;;;;42.30;24.10;;;9.70;99.90;;;;;;5043523;28;20021;-74
2022/03/16 02:21:40;;;;;;;40.75;23.05;;;9.60;99.90;;;;;;5058851;28;20047;-74
2022/03/16 02:24:07;;;;;;;38.40;23.52;;;9.60;99.90;;;;;;5026276;28;20029;-76
2022/03/16 02:26:33;;;;;;;42.97;23.75;;;9.60;99.90;;;;;;5043433;28;20017;-74
2022/03/16 02:28:58;;;;;;;42.95;24.73;;;9.50;99.90;;;;;;5042291;28;20108;-76
2022/03/16 02:31:25;;;;;;;43.67;24.83;;;9.50;99.90;;;;;;5025221;28;20048;-76
2022/03/16 02:33:50;;;;;;;42.35;23.20;;;9.50;99.90;;;;;;5025277;28;20041;-76
2022/03/16 02:36:17;;;;;;;38.83;23.02;;;9.50;99.90;;;;;;5043431;28;20071;-75
2022/03/16 02:38:42;;;;;;;39.15;22.88;;;9.50;99.90;;;;;;5059480;28;20086;-74
2022/03/16 02:41:08;;;;;;;43.58;23.48;;;9.50;99.90;;;;;;5061703;28;20090;-74
2022/03/16 02:43:34;;;;;;;38.20;23.30;;;9.40;99.90;;;;;;5061733;28;20232;-75
2022/03/16 02:46:00;;;;;;;38.63;23.02;;;9.40;99.90;;;;;;5044898;28;20091;-76
2022/03/16 02:48:26;;;;;;;43.75;23.48;;;9.50;99.90;;;;;;5061689;28;20037;-76
2022/03/16 02:50:52;;;;;;;42.65;24.00;;;9.50;99.90;;;;;;5061957;28;20017;-77
2022/03/16 02:53:18;;;;;;;42.95;23.65;;;9.50;99.90;;;;;;5044687;28;20029;-76
2022/03/16 02:55:44;;;;;;;43.00;23.00;;;9.50;99.90;;;;;;5045133;28;20354;-75
2022/03/16 02:58:11;;;;;;;41.22;23.63;;;9.60;99.90;;;;;;5062202;28;20044;-77
2022/03/16 03:00:36;;;;;;;43.90;24.92;;;9.50;99.90;;;;;;5078797;28;20318;-75
2022/03/16 03:03:02;;;;;;;52.00;25.05;;;9.40;99.90;;;;;;5060091;28;20028;-76
2022/03/16 03:05:28;;;;;;;49.92;24.75;;;9.40;99.90;;;;;;5063470;28;20053;-76
2022/03/16 03:07:54;;;;;;;52.65;25.33;;;9.40;99.90;;;;;;5061775;28;20021;-74
2022/03/16 03:10:20;;;;;;;46.00;24.70;;;9.30;99.90;;;;;;5061875;28;20248;-76
2022/03/16 03:12:46;;;;;;;43.13;25.00;;;9.30;99.90;;;;;;5061810;28;20067;-76
2022/03/16 03:15:13;;;;;;;41.80;23.70;;;9.20;99.90;;;;;;5049161;28;20024;-75
2022/03/16 03:17:41;;;;;;;49.30;24.80;;;9.20;99.90;;;;;;5066985;28;20017;-75
2022/03/16 03:20:07;;;;;;;49.45;26.88;;;9.20;99.90;;;;;;5065234;28;20029;-74
2022/03/16 03:22:33;;;;;;;47.65;25.10;;;9.20;99.90;;;;;;5065038;28;20021;-73
2022/03/16 03:24:59;;;;;;;45.97;24.85;;;9.30;99.90;;;;;;5065548;28;20244;-75
2022/03/16 03:27:25;;;;;;;48.47;25.42;;;9.30;99.90;;;;;;5048926;28;20055;-76
2022/03/16 03:29:52;;;;;;;42.30;23.83;;;9.40;99.90;;;;;;5066339;28;20024;-77
2022/03/16 03:32:18;;;;;;;42.33;24.40;;;9.40;99.90;;;;;;5064813;28;20029;-77
2022/03/16 03:34:47;;;;;;;41.67;24.30;;;9.40;99.90;;;;;;5065201;28;20032;-76
2022/03/16 03:37:14;;;;;;;48.25;24.48;;;9.40;99.90;;;;;;5081752;28;20029;-76
2022/03/16 03:39:41;;;;;;;48.70;25.08;;;9.30;99.90;;;;;;5065016;28;20089;-74
2022/03/16 03:42:08;;;;;;;47.15;25.80;;;9.30;99.90;;;;;;5081758;28;20071;-76
2022/03/16 03:44:37;;;;;;;47.78;25.40;;;9.20;99.90;;;;;;5064850;28;20021;-75
2022/03/16 03:47:04;;;;;;;46.97;25.38;;;9.20;99.90;;;;;;5065180;28;20029;-74
2022/03/16 03:49:31;;;;;;;45.13;24.95;;;9.10;99.90;;;;;;5065011;28;20327;-77
2022/03/16 03:51:56;;;;;;;42.75;24.38;;;9.20;99.90;;;;;;5065474;28;20033;-75
2022/03/16 03:54:22;;;;;;;40.25;22.83;;;9.30;99.90;;;;;;5081628;28;20077;-74
2022/03/16 03:56:48;;;;;;;41.15;23.33;;;9.40;99.90;;;;;;5066116;28;20025;-75
2022/03/16 03:59:13;;;;;;;41.35;22.83;;;9.50;99.90;;;;;;5066114;28;20013;-77
2022/03/16 04:01:39;;;;;;;40.30;23.27;;;9.60;99.90;;;;;;5081356;28;20020;-75
2022/03/16 04:04:07;;;;;;;44.42;23.65;;;9.60;99.90;;;;;;5079220;28;20024;-76
2022/03/16 04:06:33;;;;;;;41.25;23.55;;;9.60;99.90;;;;;;5064921;28;20024;-75
2022/03/16 04:08:59;;;;;;;43.55;23.88;;;9.60;99.90;;;;;;5064236;28;20064;-76
2022/03/16 04:11:25;;;;;;;41.75;23.52;;;9.60;99.90;;;;;;5081241;28;20033;-76
2022/03/16 04:13:51;;;;;;;47.15;23.65;;;9.60;99.90;;;;;;5045591;28;20343;-76
2022/03/16 04:16:16;;;;;;;43.85;24.05;;;9.60;99.90;;;;;;5027992;28;20029;-75
2022/03/16 04:18:42;;;;;;;45.10;24.05;;;9.70;99.90;;;;;;5028019;28;20021;-76
2022/03/16 04:21:08;;;;;;;40.38;23.55;;;9.70;99.90;;;;;;5027845;28;20026;-76
2022/03/16 04:23:33;;;;;;;41.80;23.90;;;9.80;99.90;;;;;;5044570;28;20043;-75
2022/03/16 04:25:59;;;;;;;43.85;24.17;;;9.80;99.90;;;;;;5042986;28;20022;-74
2022/03/16 04:28:25;;;;;;;39.30;23.10;;;9.80;99.90;;;;;;5027629;28;20041;-76
2022/03/16 04:30:51;;;;;;;45.25;23.98;;;9.80;99.90;;;;;;5027384;28;20053;-77
2022/03/16 04:33:17;;;;;;;42.60;24.13;;;9.70;99.90;;;;;;5027450;28;20442;-75
2022/03/16 04:35:43;;;;;;;41.47;22.98;;;9.70;99.90;;;;;;5027463;28;20028;-75
2022/03/16 04:38:08;;;;;;;39.97;22.88;;;9.60;99.90;;;;;;5040357;28;20053;-75
2022/03/16 04:40:35;;;;;;;43.35;23.88;;;9.60;99.90;;;;;;5064107;28;20092;-75
2022/03/16 04:43:01;;;;;;;45.03;25.17;;;9.60;99.90;;;;;;5065101;28;20111;-77
2022/03/16 04:45:26;;;;;;;44.67;24.42;;;9.50;99.90;;;;;;5063739;28;20025;-76
2022/03/16 04:47:52;;;;;;;46.50;25.98;;;9.50;99.90;;;;;;5065038;28;20071;-75
2022/03/16 04:50:18;;;;;;;48.25;25.38;;;9.40;99.90;;;;;;5063508;28;20102;-75
2022/03/16 04:52:45;;;;;;;50.28;27.38;;;9.30;99.90;;;;;;5063327;28;20258;-76
2022/03/16 04:55:11;;;;;;;51.63;27.80;;;9.30;99.90;;;;;;5064778;28;20025;-76
2022/03/16 04:57:37;;;;;;;48.28;27.98;;;9.30;99.90;;;;;;5079994;28;20073;-75
2022/03/16 05:00:04;;;;;;;58.30;28.65;;;9.20;99.90;;;;;;5063440;28;20300;-76
2022/03/16 05:02:29;;;;;;;58.67;30.17;;;9.20;99.90;;;;;;5063205;28;20033;-75
2022/03/16 05:04:55;;;;;;;62.45;31.85;;;9.20;99.90;;;;;;5028706;28;20260;-75
2022/03/16 05:07:21;;;;;;;67.18;34.33;;;9.20;99.90;;;;;;5046849;28;20017;-76
2022/03/16 05:09:47;;;;;;;68.13;35.97;;;9.20;99.90;;;;;;5046680;28;20070;-75
2022/03/16 05:12:12;;;;;;;66.20;35.22;;;9.30;99.90;;;;;;5042946;28;20041;-76
2022/03/16 05:14:38;;;;;;;71.60;37.03;;;9.40;99.90;;;;;;5043280;28;20032;-76
2022/03/16 05:17:04;;;;;;;69.28;36.08;;;9.40;99.90;;;;;;5026620;28;20331;-75
2022/03/16 05:19:30;;;;;;;74.30;38.22;;;9.40;99.90;;;;;;5044552;28;20067;-77
2022/03/16 05:21:57;;;;;;;75.20;37.20;;;9.40;99.90;;;;;;5026777;28;20021;-75
2022/03/16 05:24:24;;;;;;;74.05;37.45;;;9.40;99.90;;;;;;5026852;28;20025;-77
2022/03/16 05:26:50;;;;;;;76.88;39.85;;;9.30;99.90;;;;;;5044060;28;20020;-75
2022/03/16 05:29:16;;;;;;;86.97;39.17;;;9.30;99.90;;;;;;5044368;28;20028;-76
2022/03/16 05:31:42;;;;;;;94.70;42.92;;;9.30;99.90;;;;;;5043913;28;20018;-75
2022/03/16 05:34:08;;;;;;;83.15;42.25;;;9.30;99.90;;;;;;5009915;28;20017;-76
2022/03/16 05:36:34;;;;;;;95.40;44.50;;;9.30;99.90;;;;;;5042492;28;20327;-74
2022/03/16 05:39:00;;;;;;;88.28;41.72;;;9.30;99.90;;;;;;5026708;28;20248;-74
2022/03/16 05:41:26;;;;;;;91.28;41.97;;;9.30;99.90;;;;;;5043849;28;20022;-75
2022/03/16 05:43:52;;;;;;;97.43;44.10;;;9.30;99.90;;;;;;5059366;28;20297;-75
2022/03/16 05:46:18;;;;;;;95.88;42.28;;;9.30;99.90;;;;;;5043745;28;20025;-76
2022/03/16 05:48:43;;;;;;;96.97;42.75;;;9.30;99.90;;;;;;5058920;28;20240;-75
2022/03/16 05:51:09;;;;;;;96.90;42.67;;;9.40;99.90;;;;;;5043717;28;20025;-75
2022/03/16 05:53:35;;;;;;;98.10;43.55;;;9.40;99.90;;;;;;5042562;28;20071;-75
2022/03/16 05:56:02;;;;;;;95.15;42.47;;;9.40;99.90;;;;;;5043569;28;20323;-75
2022/03/16 05:58:28;;;;;;;113.68;44.53;;;9.50;99.90;;;;;;5058954;28;20080;-75
2022/03/16 06:00:54;;;;;;;105.00;44.67;;;9.50;99.90;;;;;;5059038;28;20355;-75
2022/03/16 06:03:19;;;;;;;106.00;44.60;;;9.60;99.90;;;;;;5042340;28;20208;-74
2022/03/16 06:05:45;;;;;;;100.38;43.95;;;9.60;99.90;;;;;;5057158;28;20024;-75
2022/03/16 06:08:11;;;;;;;107.82;45.15;;;9.70;99.90;;;;;;5042464;28;20067;-75
2022/03/16 06:10:38;;;;;;;110.72;45.67;;;9.70;99.90;;;;;;5042557;28;20021;-76
2022/03/16 06:13:05;;;;;;;120.38;49.30;;;9.60;99.90;;;;;;5052266;28;20259;-75
2022/03/16 06:15:38;;;;;;;117.93;48.60;;;9.70;99.90;;;;;;5042658;28;20300;-76
2022/03/16 06:18:04;;;;;;;114.20;48.05;;;9.60;99.90;;;;;;5026150;28;20032;-75
2022/03/16 06:20:30;;;;;;;116.20;46.17;;;9.60;99.90;;;;;;5043209;28;20037;-74
2022/03/16 06:22:56;;;;;;;118.95;47.95;;;9.60;99.90;;;;;;5042101;28;20032;-76
2022/03/16 06:25:24;;;;;;;111.50;45.70;;;9.60;99.90;;;;;;5042290;28;20013;-75
2022/03/16 06:27:50;;;;;;;121.68;48.35;;;9.50;99.90;;;;;;5009711;28;20022;-75
2022/03/16 06:30:16;;;;;;;122.07;47.40;;;9.50;99.90;;;;;;5025831;28;20051;-75
2022/03/16 06:32:45;;;;;;;116.60;48.28;;;9.50;99.90;;;;;;5025513;28;20083;-76
2022/03/16 06:35:11;;;;;;;111.80;46.90;;;9.60;99.90;;;;;;5041960;28;20014;-75
2022/03/16 06:37:37;;;;;;;108.25;45.92;;;9.60;99.90;;;;;;5052063;28;20087;-76
2022/03/16 06:40:04;;;;;;;104.55;44.78;;;9.70;99.90;;;;;;5063324;28;20032;-75
2022/03/16 06:42:30;;;;;;;115.45;45.42;;;9.80;99.90;;;;;;5063324;28;20224;-75
2022/03/16 06:44:56;;;;;;;103.63;45.42;;;9.80;99.90;;;;;;5079004;28;20029;-77
2022/03/16 06:47:21;;;;;;;105.53;43.67;;;9.90;99.90;;;;;;5062192;28;20155;-75
2022/03/16 06:49:47;;;;;;;108.85;45.30;;;10.00;99.90;;;;;;5064557;28;20064;-76
2022/03/16 06:52:13;;;;;;;113.30;44.85;;;9.90;99.90;;;;;;5082297;28;20029;-75
2022/03/16 06:54:38;;;;;;;111.53;44.25;;;10.00;99.90;;;;;;5066726;28;20033;-76
2022/03/16 06:57:04;;;;;;;96.88;43.53;;;10.10;99.90;;;;;;5066048;28;20017;-76
2022/03/16 06:59:30;;;;;;;93.95;42.55;;;10.10;99.90;;;;;;5082756;28;20323;-75
2022/03/16 07:01:55;;;;;;;107.93;44.63;;;10.00;99.90;;;;;;5082464;28;20033;-77
2022/03/16 07:04:21;;;;;;;103.70;45.17;;;10.00;99.90;;;;;;5082500;28;20020;-75
2022/03/16 07:06:47;;;;;;;98.18;44.60;;;10.00;99.90;;;;;;5063843;28;20043;-75
2022/03/16 07:09:12;;;;;;;115.10;45.03;;;10.00;99.90;;;;;;5065936;28;20021;-76
2022/03/16 07:11:38;;;;;;;110.45;47.38;;;10.00;99.90;;;;;;5079972;28;20016;-78
2022/03/16 07:16:50;;;;;;;110.47;46.15;;;9.90;99.90;;;;;;5018265;28;20254;-74
2022/03/16 07:19:15;;;;;;;104.95;46.38;;;9.90;99.90;;;;;;5029257;28;20032;-75
2022/03/16 07:21:42;;;;;;;104.40;45.15;;;9.90;99.90;;;;;;5012405;28;20308;-78
2022/03/16 07:24:08;;;;;;;100.80;44.60;;;10.00;99.90;;;;;;5012890;28;20025;-76
2022/03/16 07:26:34;;;;;;;105.15;43.55;;;10.10;99.90;;;;;;5029384;28;20240;-77
2022/03/16 07:29:00;;;;;;;99.78;42.38;;;10.10;99.90;;;;;;5012608;28;20100;-74
2022/03/16 07:31:26;;;;;;;92.43;39.15;;;10.20;99.90;;;;;;5028399;28;20024;-77
2022/03/16 07:33:51;;;;;;;88.70;40.03;;;10.30;99.90;;;;;;5044624;28;20025;-76
2022/03/16 07:36:17;;;;;;;92.05;41.38;;;10.40;99.90;;;;;;5028740;28;20483;-75
2022/03/16 07:38:43;;;;;;;89.93;41.35;;;10.30;99.90;;;;;;5046343;28;20185;-75
2022/03/16 07:41:11;;;;;;;95.15;40.95;;;10.20;99.90;;;;;;5065199;28;20021;-77
2022/03/16 07:43:37;;;;;;;88.35;41.63;;;10.20;99.90;;;;;;5064627;28;20025;-75
2022/03/16 07:46:03;;;;;;;89.68;41.65;;;10.30;99.90;;;;;;5064671;28;20020;-75
2022/03/16 07:48:29;;;;;;;92.65;42.42;;;10.40;99.90;;;;;;5064014;28;20027;-73
2022/03/16 07:50:55;;;;;;;86.70;41.00;;;10.50;99.90;;;;;;5064357;28;20021;-74
2022/03/16 07:53:21;;;;;;;108.05;44.63;;;10.60;99.90;;;;;;5064197;28;20067;-73
2022/03/16 07:55:48;;;;;;;106.75;44.72;;;10.40;99.90;;;;;;5065706;28;20212;-74
2022/03/16 07:58:14;;;;;;;106.03;45.05;;;10.40;99.90;;;;;;5064441;28;20028;-74
2022/03/16 08:00:39;;;;;;;108.53;43.38;;;10.40;99.90;;;;;;5079904;28;20017;-74
2022/03/16 08:03:06;;;;;;;107.75;43.67;;;10.60;99.90;;;;;;5063931;28;20071;-74
2022/03/16 08:05:33;;;;;;;107.50;44.08;;;10.60;99.90;;;;;;5080921;28;20139;-75
2022/03/16 08:07:59;;;;;;;107.40;44.40;;;10.70;99.90;;;;;;5063203;28;20025;-74
2022/03/16 08:10:25;;;;;;;100.68;44.22;;;10.70;99.90;;;;;;5081688;28;20031;-75
2022/03/16 08:12:52;;;;;;;99.60;42.17;;;10.80;99.90;;;;;;5064113;28;20052;-75
2022/03/16 08:15:18;;;;;;;100.47;42.60;;;10.90;99.90;;;;;;5072788;28;20056;-75
2022/03/16 08:17:43;;;;;;;102.90;42.95;;;11.00;99.90;;;;;;5056837;28;20328;-77
2022/03/16 08:20:10;;;;;;;108.15;44.05;;;11.10;99.90;;;;;;5055327;28;20252;-73
2022/03/16 08:22:36;;;;;;;113.70;45.17;;;11.00;99.90;;;;;;5044083;28;20024;-71
2022/03/16 08:25:11;;;;;;;117.45;45.25;;;11.00;99.90;;;;;;5047574;28;20044;-73
2022/03/16 08:27:37;;;;;;;105.03;44.85;;;11.10;99.90;;;;;;5061897;28;20067;-75
2022/03/16 08:30:05;;;;;;;112.90;45.42;;;11.10;99.90;;;;;;5043728;28;20023;-75
2022/03/16 08:32:31;;;;;;;104.57;44.90;;;11.10;99.90;;;;;;5060418;28;20037;-74
2022/03/16 08:34:56;;;;;;;108.30;43.47;;;11.20;99.90;;;;;;5057447;28;20048;-74
2022/03/16 08:37:22;;;;;;;109.97;45.72;;;11.30;99.90;;;;;;5073022;28;20080;-73
2022/03/16 08:39:49;;;;;;;109.03;42.85;;;11.30;99.90;;;;;;5044235;28;20091;-74
2022/03/16 08:42:16;;;;;;;106.38;44.38;;;11.30;99.90;;;;;;5043286;28;20025;-72
2022/03/16 08:44:43;;;;;;;108.35;43.60;;;11.40;99.90;;;;;;5026645;28;20076;-73
2022/03/16 08:47:11;;;;;;;112.88;44.55;;;11.30;99.90;;;;;;5042769;28;20033;-73
2022/03/16 08:49:37;;;;;;;106.18;44.45;;;11.30;99.90;;;;;;5033834;28;20117;-74
2022/03/16 08:52:05;;;;;;;110.03;46.03;;;11.30;99.90;;;;;;5051351;28;20060;-76
2022/03/16 08:54:31;;;;;;;109.07;44.08;;;11.20;99.90;;;;;;5063249;28;20017;-74
2022/03/16 08:56:57;;;;;;;107.00;43.72;;;11.20;99.90;;;;;;5058796;28;20328;-71
2022/03/16 08:59:23;;;;;;;104.90;44.08;;;11.20;99.90;;;;;;5063857;28;20025;-75
2022/03/16 09:01:50;;;;;;;107.00;43.58;;;11.20;99.90;;;;;;5053661;28;20033;-73
2022/03/16 09:04:16;;;;;;;101.95;42.97;;;11.20;99.90;;;;;;5063448;28;20045;-76
2022/03/16 09:06:42;;;;;;;99.47;43.13;;;11.30;99.90;;;;;;5056972;28;20338;-73
2022/03/16 09:09:08;;;;;;;97.95;42.35;;;11.30;99.90;;;;;;5058269;28;20033;-75
2022/03/16 09:11:34;;;;;;;101.93;43.30;;;11.30;99.90;;;;;;5058400;28;20049;-75
2022/03/16 09:14:02;;;;;;;98.00;42.42;;;11.30;99.90;;;;;;5069051;28;20036;-75
2022/03/16 09:16:28;;;;;;;100.43;42.80;;;11.30;99.90;;;;;;5046293;28;20328;-73
2022/03/16 09:18:54;;;;;;;99.68;42.65;;;11.30;99.90;;;;;;5061126;28;20029;-75
2022/03/16 09:21:20;;;;;;;100.65;42.65;;;11.40;99.90;;;;;;5045190;28;20029;-76
2022/03/16 09:23:47;;;;;;;94.85;42.10;;;11.30;99.90;;;;;;5063243;28;20185;-75
2022/03/16 09:26:12;;;;;;;89.45;40.58;;;11.40;99.90;;;;;;5066832;28;20005;-76
2022/03/16 09:28:38;;;;;;;98.72;42.28;;;11.40;99.90;;;;;;5054011;28;20022;-73
2022/03/16 09:31:04;;;;;;;104.47;43.15;;;11.40;99.90;;;;;;5055618;28;20017;-75
2022/03/16 09:33:30;;;;;;;105.28;42.85;;;11.40;99.90;;;;;;5057884;28;20117;-73
2022/03/16 09:35:56;;;;;;;105.50;42.63;;;11.40;99.90;;;;;;5058458;28;20025;-72
2022/03/16 09:38:22;;;;;;;95.15;42.55;;;11.30;99.90;;;;;;5057720;28;20021;-75
2022/03/16 09:40:52;;;;;;;94.78;39.72;;;11.30;99.90;;;;;;5041189;28;20070;-71
2022/03/16 09:43:19;;;;;;;92.60;39.70;;;11.20;99.90;;;;;;5043072;28;20035;-75
2022/03/16 09:45:55;;;;;;;82.82;38.75;;;11.20;99.90;;;;;;5060222;28;20020;-77
2022/03/16 09:48:23;;;;;;;82.85;38.03;;;11.20;99.90;;;;;;5059946;28;20012;-72
2022/03/16 09:50:51;;;;;;;83.78;39.10;;;11.10;99.90;;;;;;5061265;28;20029;-73
2022/03/16 09:53:16;;;;;;;74.75;36.33;;;11.10;99.90;;;;;;5060103;28;20033;-72
2022/03/16 09:55:42;;;;;;;86.70;39.00;;;11.00;99.90;;;;;;5078383;28;20025;-72
2022/03/16 09:58:08;;;;;;;85.93;38.13;;;11.00;99.90;;;;;;5061594;28;20032;-74
2022/03/16 10:00:34;;;;;;;81.03;38.53;;;11.00;99.90;;;;;;5044587;28;20017;-72
2022/03/16 10:03:02;;;;;;;80.72;37.75;;;11.00;99.90;;;;;;5060970;28;20029;-73
2022/03/16 10:05:29;;;;;;;80.60;38.55;;;11.00;99.90;;;;;;5028459;28;20354;-77
2022/03/16 10:07:55;;;;;;;75.78;35.80;;;11.00;99.90;;;;;;5044152;28;20044;-72
2022/03/16 10:13:23;;;;;;;68.60;33.47;;;11.10;99.90;;;;;;5057462;28;20051;-74
2022/03/16 10:16:09;;;;;;;60.55;29.80;;;11.10;99.90;;;;;;5037605;28;20231;-74
2022/03/16 10:18:36;;;;;;;56.65;29.85;;;11.20;99.90;;;;;;5051964;28;20052;-75
2022/03/16 10:21:04;;;;;;;50.65;28.30;;;11.30;99.90;;;;;;5061033;28;20021;-74
2022/03/16 10:23:30;;;;;;;52.90;28.95;;;11.40;99.90;;;;;;5075254;28;20022;-75
2022/03/16 10:25:59;;;;;;;50.17;27.13;;;11.40;99.90;;;;;;5057796;28;20220;-74
2022/03/16 10:28:26;;;;;;;49.13;25.63;;;11.50;99.90;;;;;;5042725;28;20265;-73
2022/03/16 10:30:56;;;;;;;45.78;25.70;;;11.40;99.90;;;;;;5040780;28;20331;-73
2022/03/16 10:33:24;;;;;;;41.95;24.48;;;11.50;99.90;;;;;;5057934;28;20096;-72
2022/03/16 10:35:56;;;;;;;45.85;24.98;;;11.60;99.90;;;;;;5062025;28;20037;-77
2022/03/16 10:38:22;;;;;;;48.40;26.42;;;11.60;99.90;;;;;;5062390;28;20270;-77
2022/03/16 10:40:49;;;;;;;43.05;25.50;;;11.70;99.90;;;;;;5047610;28;20033;-74
2022/03/16 10:46:34;;;;;;;48.13;26.52;;;11.50;99.90;;;;;;5032387;28;20021;-76
2022/03/16 10:49:06;;;;;;;41.75;24.00;;;11.50;99.90;;;;;;5056906;28;20121;-76
2022/03/16 10:51:32;;;;;;;41.50;23.80;;;11.30;99.90;;;;;;5040807;28;20093;-76
2022/03/16 10:54:00;;;;;;;40.67;23.95;;;11.30;99.90;;;;;;5041136;28;20328;-76
2022/03/16 10:56:28;;;;;;;46.45;24.88;;;11.20;99.90;;;;;;5043716;28;20032;-79
2022/03/16 10:58:54;;;;;;;44.63;25.02;;;11.10;99.90;;;;;;5057302;28;20029;-75
2022/03/16 11:01:22;;;;;;;45.78;25.80;;;11.10;99.90;;;;;;5058753;28;20329;-74
2022/03/16 11:03:50;;;;;;;43.35;24.92;;;11.10;99.90;;;;;;5077276;28;20020;-75
2022/03/16 11:06:20;;;;;;;43.20;23.92;;;11.10;99.90;;;;;;5054142;28;20025;-71
2022/03/16 11:08:47;;;;;;;44.78;24.65;;;11.10;99.90;;;;;;5040136;28;20041;-74
2022/03/16 11:14:01;;;;;;;34.88;20.48;;;11.30;99.90;;;;;;5054955;28;20105;-72
2022/03/16 11:16:29;;;;;;;31.08;18.65;;;11.40;99.90;;;;;;5066455;28;20025;-75
2022/03/16 11:18:57;;;;;;;29.75;18.95;;;11.30;99.90;;;;;;5060670;28;20045;-72
2022/03/16 11:21:29;;;;;;;29.40;18.83;;;11.20;99.90;;;;;;5060848;28;20078;-72
2022/03/16 11:27:09;;;;;;;34.50;20.00;;;11.20;99.90;;;;;;5071735;28;19935;-74
2022/03/16 11:30:15;;;;;;;28.10;17.40;;;11.30;99.90;;;;;;5053383;28;20123;-72
2022/03/16 11:32:44;;;;;;;26.73;17.42;;;11.30;99.90;;;;;;5048964;28;20037;-77
2022/03/16 11:35:16;;;;;;;28.35;18.55;;;11.30;99.90;;;;;;5053255;28;20024;-73
2022/03/16 11:37:46;;;;;;;27.83;17.55;;;11.20;99.90;;;;;;5055330;28;20427;-78
2022/03/16 11:40:15;;;;;;;27.52;17.13;;;11.10;99.90;;;;;;5044312;28;20025;-73
2022/03/16 11:43:06;;;;;;;25.42;16.38;;;11.10;99.90;;;;;;5030704;28;20017;-77
2022/03/16 11:45:38;;;;;;;24.63;16.77;;;11.10;99.90;;;;;;5044227;28;20024;-72
2022/03/16 11:48:24;;;;;;;;;;;11.10;99.90;;;;;;5061563;28;20025;-76
2022/03/16 11:51:17;;;;;;;27.15;16.92;;;11.10;99.90;;;;;;5063592;28;19913;-74
2022/03/16 11:54:05;;;;;;;30.30;16.65;;;11.20;99.90;;;;;;5021301;28;20456;-74
2022/03/16 11:56:47;;;;;;;23.10;15.30;;;11.20;99.90;;;;;;5043799;28;20088;-75
2022/03/16 11:59:28;;;;;;;26.23;16.80;;;11.20;99.90;;;;;;5068899;28;20088;-73
2022/03/16 12:02:16;;;;;;;29.35;15.77;;;11.20;99.90;;;;;;5056845;28;20029;-73
2022/03/16 12:04:44;;;;;;;23.13;15.80;;;11.30;99.90;;;;;;5028857;28;20312;-75
2022/03/16 12:07:14;;;;;;;19.05;14.05;;;11.20;99.90;;;;;;5044455;28;20072;-74
2022/03/16 12:10:01;;;;;;;23.55;15.45;;;11.20;99.90;;;;;;5042334;28;20312;-72
2022/03/16 12:15:38;;;;;;;20.70;13.90;;;11.10;99.90;;;;;;5063543;28;20342;-74
2022/03/16 12:18:20;;;;;;;20.90;13.68;;;11.10;99.90;;;;;;5064083;28;20062;-74
2022/03/16 12:20:53;;;;;;;23.30;14.35;;;11.00;99.90;;;;;;5047133;28;20033;-78
2022/03/16 12:23:54;;;;;;;24.25;15.23;;;10.90;99.90;;;;;;5063272;28;20028;-72
2022/03/16 12:26:25;;;;;;;23.27;14.07;;;10.80;99.90;;;;;;5072966;28;20307;-76
2022/03/16 12:29:03;;;;;;;27.73;16.50;;;10.70;99.90;;;;;;5047572;28;20342;-75
2022/03/16 12:31:30;;;;;;;25.20;15.80;;;10.70;99.90;;;;;;5054865;28;20045;-74
2022/03/16 12:33:57;;;;;;;28.65;16.77;;;10.70;99.90;;;;;;5045128;28;20078;-74
2022/03/16 12:36:25;;;;;;;21.60;14.30;;;10.60;99.90;;;;;;5043982;28;20144;-72
2022/03/16 12:38:55;;;;;;;23.58;14.73;;;10.60;99.90;;;;;;5061196;28;20020;-76
2022/03/16 12:44:12;;;;;;;27.75;16.67;;;10.40;99.90;;;;;;5043079;28;20017;-76
2022/03/16 12:47:05;;;;;;;26.92;15.88;;;10.40;99.90;;;;;;5059142;28;20017;-76
2022/03/16 12:49:38;;;;;;;26.02;16.13;;;10.40;99.90;;;;;;5042768;28;20257;-76
2022/03/16 12:52:07;;;;;;;25.75;15.75;;;10.30;99.90;;;;;;5059986;28;20048;-76